Time;durP1;ratioP1;P1;durP2;ratioP2;P2;SDS_P1;SDS_P2;PMS_P1;PMS_P2;Temp;Humidity;BMP_temperature;BMP_pressure;BME280_temperature;BME280_humidity;BME280_pressure;Samples;Min_cycle;Max_cycle;Signal;HPM_P1;HPM_P2
2022/10/22 00:02:56;;;;;;;;;;;;;;;19.82;50.72;95390.75;10495889;28;1905;-47
2022/10/22 00:07:56;;;;;;;;;;;;;;;19.82;50.50;95377.63;10487813;28;1810;-47
2022/10/22 00:12:57;;;;;;;;;;;;;;;19.83;50.73;95384.44;10489596;28;1629;-49
2022/10/22 00:17:57;;;;;;;;;;;;;;;19.85;50.66;95394.66;10493816;28;1099;-49
2022/10/22 00:22:57;;;;;;;;;;;;;;;19.81;50.55;95391.81;10492823;28;1905;-51
2022/10/22 00:27:57;;;;;;;;;;;;;;;19.83;50.68;95396.78;10490919;28;1428;-51
2022/10/22 00:32:58;;;;;;;;;;;;;;;19.82;50.58;95395.22;10497484;28;1447;-51
2022/10/22 00:37:58;;;;;;;;;;;;;;;19.82;50.72;95414.44;10494112;28;1133;-49
2022/10/22 00:42:58;;;;;;;;;;;;;;;19.84;50.70;95432.56;10491048;28;1910;-49
2022/10/22 00:48:00;;;;;;;;;;;;;;;19.86;50.40;95459.38;10495103;28;821;-49
2022/10/22 00:53:00;;;;;;;;;;;;;;;19.86;50.53;95475.94;10492673;28;1618;-49
2022/10/22 00:58:01;;;;;;;;;;;;;;;19.81;50.85;95473.34;10475331;28;1613;-51
2022/10/22 01:03:01;;;;;;;;;;;;;;;19.83;50.76;95459.91;10492044;28;1913;-51
2022/10/22 01:08:01;;;;;;;;;;;;;;;19.82;50.67;95445.22;10493342;28;1143;-51
2022/10/22 01:13:04;;;;;;;;;;;;;;;19.81;50.60;95443.63;10475218;28;1547;-52
2022/10/22 01:18:05;;;;;;;;;;;;;;;19.79;50.74;95437.84;10493070;28;1103;-51
2022/10/22 01:23:15;;;;;;;;;;;;;;;19.81;50.64;95435.72;10469336;28;1910;-50
2022/10/22 01:28:22;;;;;;;;;;;;;;;19.79;50.51;95432.59;10489857;28;1646;-51
2022/10/22 01:33:22;;;;;;;;;;;;;;;19.78;50.81;95428.41;10483119;28;1506;-53
2022/10/22 01:38:23;;;;;;;;;;;;;;;19.79;50.73;95427.31;10474953;28;1089;-47
2022/10/22 01:43:23;;;;;;;;;;;;;;;19.78;50.79;95431.03;10485533;28;2328;-48
2022/10/22 01:48:30;;;;;;;;;;;;;;;19.83;50.69;95438.88;10495168;28;1137;-47
2022/10/22 01:53:43;;;;;;;;;;;;;;;19.80;50.72;95449.97;10499632;28;1662;-52
2022/10/22 01:59:04;;;;;;;;;;;;;;;19.80;50.79;95436.81;10479677;28;1685;-51
2022/10/22 02:04:18;;;;;;;;;;;;;;;19.78;50.74;95444.97;10427221;28;1913;-51
2022/10/22 02:09:18;;;;;;;;;;;;;;;19.81;50.69;95449.66;10474582;28;1122;-50
2022/10/22 02:14:19;;;;;;;;;;;;;;;19.82;50.48;95467.03;10462457;28;1523;-52
2022/10/22 02:19:25;;;;;;;;;;;;;;;19.80;50.52;95471.78;10500168;28;880;-49
2022/10/22 02:24:26;;;;;;;;;;;;;;;19.78;50.67;95481.00;10489794;28;1917;-49
2022/10/22 02:29:27;;;;;;;;;;;;;;;19.81;50.71;95490.97;10499880;28;1102;-47
2022/10/22 02:34:28;;;;;;;;;;;;;;;19.78;50.77;95499.41;10498427;28;1466;-51
2022/10/22 02:39:29;;;;;;;;;;;;;;;19.77;50.75;95510.97;10487536;28;1118;-49
2022/10/22 02:44:29;;;;;;;;;;;;;;;19.83;50.54;95517.78;10494681;28;1914;-50
2022/10/22 02:49:39;;;;;;;;;;;;;;;19.79;50.70;95519.38;10499107;28;896;-49
2022/10/22 02:54:39;;;;;;;;;;;;;;;19.78;50.58;95515.19;10486959;28;1742;-46
2022/10/22 02:59:40;;;;;;;;;;;;;;;19.77;50.81;95513.63;10480548;28;1125;-47
2022/10/22 03:04:40;;;;;;;;;;;;;;;19.78;50.73;95505.47;10496799;28;1914;-49
2022/10/22 03:09:40;;;;;;;;;;;;;;;19.75;50.74;95507.84;10498459;28;996;-46
2022/10/22 03:14:40;;;;;;;;;;;;;;;19.75;50.67;95506.00;10494313;28;1642;-46
2022/10/22 03:19:41;;;;;;;;;;;;;;;19.74;50.66;95509.69;10498230;28;858;-50
2022/10/22 03:24:43;;;;;;;;;;;;;;;19.74;50.57;95508.91;10504966;28;1951;-48
2022/10/22 03:29:43;;;;;;;;;;;;;;;19.73;50.86;95517.84;10480099;28;1114;-50
2022/10/22 03:34:43;;;;;;;;;;;;;;;19.76;50.75;95533.09;10500349;28;1456;-48
2022/10/22 03:39:43;;;;;;;;;;;;;;;19.74;50.70;95537.84;10479812;28;1184;-50
2022/10/22 03:44:44;;;;;;;;;;;;;;;19.76;50.78;95538.34;10495126;28;1914;-50
2022/10/22 03:49:44;;;;;;;;;;;;;;;19.75;50.70;95563.88;10478702;28;964;-48
2022/10/22 03:54:44;;;;;;;;;;;;;;;19.74;50.74;95566.78;10485319;28;1638;-47
2022/10/22 03:59:45;;;;;;;;;;;;;;;19.72;50.83;95572.28;10495878;28;1160;-48
2022/10/22 04:04:45;;;;;;;;;;;;;;;19.74;50.67;95566.78;10494184;28;1952;-49
2022/10/22 04:09:46;;;;;;;;;;;;;;;19.72;50.85;95574.91;10495450;28;805;-49
2022/10/22 04:14:47;;;;;;;;;;;;;;;19.72;50.57;95568.88;10489059;28;1563;-51
2022/10/22 04:19:47;;;;;;;;;;;;;;;19.73;50.80;95559.91;10490069;28;1622;-46
2022/10/22 04:24:48;;;;;;;;;;;;;;;19.73;50.77;95557.28;10491740;28;1981;-48
2022/10/22 04:29:48;;;;;;;;;;;;;;;19.73;50.71;95546.78;10494805;28;1285;-48
2022/10/22 04:34:48;;;;;;;;;;;;;;;19.71;50.62;95562.03;10487519;28;1495;-50
2022/10/22 04:39:49;;;;;;;;;;;;;;;19.70;50.92;95549.97;10476290;28;1165;-48
2022/10/22 04:44:49;;;;;;;;;;;;;;;19.70;50.78;95555.22;10470527;28;2010;-51
2022/10/22 04:49:49;;;;;;;;;;;;;;;19.72;50.88;95558.38;10494256;28;1106;-49
2022/10/22 04:54:50;;;;;;;;;;;;;;;19.70;50.82;95563.88;10491935;28;1590;-47
2022/10/22 04:59:50;;;;;;;;;;;;;;;19.69;50.78;95551.81;10494648;28;1122;-49
2022/10/22 05:04:50;;;;;;;;;;;;;;;19.70;50.88;95542.06;10491132;28;1909;-48
2022/10/22 05:09:50;;;;;;;;;;;;;;;19.69;50.73;95549.16;10492100;28;1697;-50
2022/10/22 05:14:53;;;;;;;;;;;;;;;19.69;50.83;95537.88;10488873;28;1110;-49
2022/10/22 05:19:56;;;;;;;;;;;;;;;19.70;50.58;95536.81;10491232;28;1610;-49
2022/10/22 05:24:56;;;;;;;;;;;;;;;19.69;50.56;95536.03;10488491;28;1914;-51
2022/10/22 05:29:56;;;;;;;;;;;;;;;19.68;50.81;95546.81;10493176;28;1160;-46
2022/10/22 05:34:57;;;;;;;;;;;;;;;19.68;50.75;95552.09;10484914;28;1364;-52
2022/10/22 05:39:57;;;;;;;;;;;;;;;19.67;50.87;95558.38;10492732;28;1114;-51
2022/10/22 05:44:57;;;;;;;;;;;;;;;19.68;50.75;95573.88;10489568;28;2042;-49
2022/10/22 05:50:03;;;;;;;;;;;;;;;19.68;50.87;95573.13;10496657;28;1090;-51
2022/10/22 05:55:04;;;;;;;;;;;;;;;19.67;50.84;95577.59;10489176;28;1630;-52
2022/10/22 06:00:05;;;;;;;;;;;;;;;19.66;51.08;95576.00;10496289;28;1106;-48
2022/10/22 06:05:05;;;;;;;;;;;;;;;19.66;50.84;95562.84;10489893;28;1918;-51
2022/10/22 06:10:18;;;;;;;;;;;;;;;19.67;50.76;95574.97;10479968;28;1072;-50
2022/10/22 06:15:19;;;;;;;;;;;;;;;19.66;50.95;95572.59;10493495;28;1578;-51
2022/10/22 06:20:19;;;;;;;;;;;;;;;19.65;50.72;95590.22;10492169;28;1575;-52
2022/10/22 06:25:20;;;;;;;;;;;;;;;19.66;50.83;95599.66;10492584;28;1906;-49
2022/10/22 06:30:20;;;;;;;;;;;;;;;19.65;50.91;95594.69;10499591;28;1098;-46
2022/10/22 06:35:20;;;;;;;;;;;;;;;19.66;50.77;95614.69;10493833;28;1574;-47
2022/10/22 06:40:23;;;;;;;;;;;;;;;19.66;50.93;95619.94;10500246;28;1222;-48
2022/10/22 06:45:23;;;;;;;;;;;;;;;19.67;50.57;95605.72;10465505;28;1914;-47
2022/10/22 06:50:24;;;;;;;;;;;;;;;19.64;50.93;95598.38;10482466;28;972;-50
2022/10/22 06:55:24;;;;;;;;;;;;;;;19.64;50.81;95601.78;10477402;28;1647;-49
2022/10/22 07:00:24;;;;;;;;;;;;;;;19.66;50.76;95628.59;10499712;28;1050;-53
2022/10/22 07:05:25;;;;;;;;;;;;;;;19.64;51.01;95656.25;10488415;28;1975;-50
2022/10/22 07:10:26;;;;;;;;;;;;;;;19.65;50.68;95657.78;10500092;28;821;-50
2022/10/22 07:15:26;;;;;;;;;;;;;;;19.64;50.93;95678.03;10493802;28;1650;-46
2022/10/22 07:20:26;;;;;;;;;;;;;;;19.65;50.96;95702.50;10498760;28;1107;-48
2022/10/22 07:25:27;;;;;;;;;;;;;;;19.65;50.92;95719.06;10492195;28;1914;-49
2022/10/22 07:30:27;;;;;;;;;;;;;;;19.63;51.07;95717.75;10498279;28;1102;-48
2022/10/22 07:35:27;;;;;;;;;;;;;;;19.62;50.77;95722.22;10479483;28;1694;-47
2022/10/22 07:40:28;;;;;;;;;;;;;;;19.64;50.94;95725.38;10497846;28;960;-48
2022/10/22 07:45:28;;;;;;;;;;;;;;;19.63;51.02;95738.78;10473421;28;1989;-48
2022/10/22 07:50:28;;;;;;;;;;;;;;;19.64;51.02;95740.38;10496147;28;1064;-46
2022/10/22 07:55:29;;;;;;;;;;;;;;;19.63;51.02;95750.09;10480396;28;1549;-50
2022/10/22 08:00:29;;;;;;;;;;;;;;;19.64;50.84;95745.63;10496739;28;1106;-48
2022/10/22 08:05:29;;;;;;;;;;;;;;;19.62;50.90;95753.00;10488465;28;1918;-50
2022/10/22 08:10:30;;;;;;;;;;;;;;;19.64;51.05;95750.91;10496535;28;953;-48
2022/10/22 08:15:30;;;;;;;;;;;;;;;19.65;51.01;95760.34;10475339;28;1641;-50
2022/10/22 08:20:31;;;;;;;;;;;;;;;19.64;50.72;95777.19;10493978;28;1614;-47
2022/10/22 08:25:31;;;;;;;;;;;;;;;19.64;50.75;95788.47;10485132;28;1927;-50
2022/10/22 08:30:32;;;;;;;;;;;;;;;19.64;50.96;95791.09;10495487;28;1173;-50
2022/10/22 08:35:33;;;;;;;;;;;;;;;19.63;50.79;95800.06;10489776;28;1463;-51
2022/10/22 08:40:34;;;;;;;;;;;;;;;19.61;50.91;95804.81;10493550;28;1626;-47
2022/10/22 08:45:46;;;;;;;;;;;;;;;19.64;50.97;95819.28;10488046;28;1979;-47
2022/10/22 08:50:47;;;;;;;;;;;;;;;19.62;50.90;95814.25;10490517;28;1777;-47
2022/10/22 08:55:48;;;;;;;;;;;;;;;19.63;51.10;95801.91;10471804;28;1653;-52
2022/10/22 09:01:24;;;;;;;;;;;;;;;19.64;51.17;95814.00;10479655;28;1176;-48
2022/10/22 09:06:28;;;;;;;;;;;;;;;19.63;50.86;95829.00;10387696;28;1730;-51
2022/10/22 09:11:35;;;;;;;;;;;;;;;19.64;51.03;95825.28;10494058;28;1038;-51
2022/10/22 09:16:47;;;;;;;;;;;;;;;19.61;51.11;95828.47;10478095;28;1616;-46
2022/10/22 09:21:47;;;;;;;;;;;;;;;19.63;51.15;95838.72;10492401;28;1898;-50
2022/10/22 09:26:47;;;;;;;;;;;;;;;19.63;51.06;95839.50;10494321;28;1349;-51
2022/10/22 09:31:48;;;;;;;;;;;;;;;19.63;51.16;95843.97;10497981;28;1019;-48
2022/10/22 09:37:01;;;;;;;;;;;;;;;19.61;51.18;95831.09;10490426;28;1459;-48
2022/10/22 09:42:01;;;;;;;;;;;;;;;19.62;51.16;95840.56;10489301;28;1967;-52
2022/10/22 09:47:03;;;;;;;;;;;;;;;19.62;51.08;95837.91;10493358;28;1097;-47
2022/10/22 09:57:57;;;;;;;;;;;;;;;19.64;51.02;95848.19;10488666;28;1011;-49
2022/10/22 10:02:58;;;;;;;;;;;;;;;19.62;51.06;95858.97;10490059;28;1898;-49
2022/10/22 10:08:10;;;;;;;;;;;;;;;19.62;51.23;95853.69;10470193;28;1719;-49
2022/10/22 10:13:17;;;;;;;;;;;;;;;19.64;50.98;95856.09;10484418;28;1184;-48
2022/10/22 10:18:21;;;;;;;;;;;;;;;19.65;50.89;95857.66;10492752;28;1742;-48
2022/10/22 10:23:34;;;;;;;;;;;;;;;19.65;51.00;95852.38;10500755;28;1902;-48
2022/10/22 10:28:43;;;;;;;;;;;;;;;19.68;50.76;95847.38;10491691;28;1761;-51
2022/10/22 10:33:53;;;;;;;;;;;;;;;19.67;50.89;95842.38;10500831;28;1106;-46
2022/10/22 10:38:58;;;;;;;;;;;;;;;19.69;50.75;95842.91;10491792;28;1786;-46
2022/10/22 10:44:14;;;;;;;;;;;;;;;19.69;51.01;95833.19;10500145;28;1973;-49
2022/10/22 10:49:14;;;;;;;;;;;;;;;19.77;50.88;95837.91;10498165;28;1627;-51
2022/10/22 10:54:16;;;;;;;;;;;;;;;19.83;50.79;95833.41;10496512;28;1675;-50
2022/10/22 10:59:24;;;;;;;;;;;;;;;19.86;50.60;95827.63;10466132;28;1703;-46
2022/10/22 11:04:43;;;;;;;;;;;;;;;19.80;50.78;95829.50;10499221;28;1969;-47
2022/10/22 11:09:46;;;;;;;;;;;;;;;19.83;50.86;95828.94;10488471;28;1688;-51
2022/10/22 11:14:47;;;;;;;;;;;;;;;19.91;50.64;95824.97;10480655;28;914;-46
2022/10/22 11:19:50;;;;;;;;;;;;;;;19.86;50.77;95825.81;10489912;28;1659;-48
2022/10/22 11:24:59;;;;;;;;;;;;;;;19.76;51.07;95831.09;10476569;28;1910;-48
2022/10/22 11:30:23;;;;;;;;;;;;;;;19.73;51.40;95828.19;10485104;28;1470;-46
2022/10/22 11:35:27;;;;;;;;;;;;;;;19.78;51.41;95821.09;10475711;28;1190;-50
2022/10/22 11:40:27;;;;;;;;;;;;;;;19.75;51.37;95824.22;10478204;28;1755;-50
2022/10/22 11:45:28;;;;;;;;;;;;;;;19.77;51.51;95813.44;10497963;28;1918;-47
2022/10/22 11:50:55;;;;;;;;;;;;;;;19.77;51.27;95813.44;10476252;28;1689;-51
2022/10/22 11:55:58;;;;;;;;;;;;;;;19.84;51.08;95812.13;10494230;28;1542;-49
2022/10/22 12:01:02;;;;;;;;;;;;;;;19.78;51.59;95815.03;10474381;28;1430;-46
2022/10/22 12:06:02;;;;;;;;;;;;;;;19.78;51.58;95804.50;10492456;28;1909;-48
2022/10/22 12:11:04;;;;;;;;;;;;;;;19.82;51.36;95814.25;10493776;28;1150;-52
2022/10/22 12:16:04;;;;;;;;;;;;;;;19.77;51.67;95813.44;10472574;28;1689;-50
2022/10/22 12:21:04;;;;;;;;;;;;;;;19.81;51.41;95803.97;10498071;28;1133;-51
2022/10/22 12:26:05;;;;;;;;;;;;;;;19.87;51.51;95805.53;10495948;28;1874;-52
2022/10/22 12:31:05;;;;;;;;;;;;;;;19.88;51.48;95800.00;10495648;28;1448;-49
2022/10/22 12:36:12;;;;;;;;;;;;;;;19.90;51.68;95797.09;10495474;28;1532;-52
2022/10/22 12:41:13;;;;;;;;;;;;;;;20.02;51.45;95800.22;10479459;28;1906;-50
2022/10/22 12:46:14;;;;;;;;;;;;;;;20.13;51.23;95789.38;10491950;28;1558;-52
2022/10/22 12:51:17;;;;;;;;;;;;;;;20.56;50.41;95787.91;10494928;28;1137;-52
2022/10/22 12:56:21;;;;;;;;;;;;;;;21.29;48.35;95787.97;10473643;28;1605;-48
2022/10/22 13:01:23;;;;;;;;;;;;;;;21.84;47.33;95790.09;10473331;28;1999;-52
2022/10/22 13:06:24;;;;;;;;;;;;;;;22.18;46.88;95788.09;10471104;28;1932;-50
2022/10/22 13:11:51;;;;;;;;;;;;;;;22.57;45.77;95783.38;10494876;28;1141;-48
2022/10/22 13:17:03;;;;;;;;;;;;;;;22.67;45.38;95776.41;10473344;28;1626;-54
2022/10/22 13:22:04;;;;;;;;;;;;;;;22.22;45.36;95770.63;10493755;28;1906;-52
2022/10/22 13:27:06;;;;;;;;;;;;;;;22.16;45.89;95777.03;10488518;28;1622;-49
2022/10/22 13:32:40;;;;;;;;;;;;;;;22.58;45.21;95782.34;10477904;28;1617;-49
2022/10/22 13:37:40;;;;;;;;;;;;;;;22.97;44.66;95771.47;10463811;28;1578;-51
2022/10/22 13:42:41;;;;;;;;;;;;;;;22.81;43.89;95772.78;10494868;28;1951;-47
2022/10/22 13:47:43;;;;;;;;;;;;;;;22.14;45.46;95778.38;10502125;28;1559;-49
2022/10/22 13:52:45;;;;;;;;;;;;;;;21.64;46.50;95783.13;10473179;28;1195;-48
2022/10/22 13:57:45;;;;;;;;;;;;;;;21.33;47.41;95783.69;10495379;28;1546;-50
2022/10/22 14:02:46;;;;;;;;;;;;;;;21.14;47.95;95788.06;10498009;28;1981;-50
2022/10/22 14:07:47;;;;;;;;;;;;;;;20.99;48.36;95781.84;10496862;28;1583;-49
2022/10/22 14:12:47;;;;;;;;;;;;;;;20.92;48.58;95783.19;10484049;28;1034;-53
2022/10/22 14:17:52;;;;;;;;;;;;;;;20.77;49.34;95784.06;10495316;28;1669;-48
2022/10/22 14:22:53;;;;;;;;;;;;;;;20.64;49.60;95789.97;10501774;28;1973;-53
2022/10/22 14:27:53;;;;;;;;;;;;;;;20.58;49.85;95796.31;10494923;28;1468;-49
2022/10/22 14:32:54;;;;;;;;;;;;;;;20.50;49.99;95798.75;10498603;28;1003;-49
2022/10/22 14:37:57;;;;;;;;;;;;;;;20.44;50.41;95805.88;10493484;28;1662;-52
2022/10/22 14:42:57;;;;;;;;;;;;;;;20.40;50.59;95804.84;10504762;28;1977;-48
2022/10/22 14:47:57;;;;;;;;;;;;;;;20.34;50.63;95808.53;10481719;28;1614;-46
2022/10/22 14:52:59;;;;;;;;;;;;;;;20.34;50.70;95813.03;10485063;28;1540;-48
2022/10/22 14:57:59;;;;;;;;;;;;;;;20.29;50.66;95811.22;10499600;28;1381;-52
2022/10/22 15:03:00;;;;;;;;;;;;;;;20.27;50.74;95815.97;10481290;28;1909;-51
2022/10/22 15:08:04;;;;;;;;;;;;;;;20.26;50.66;95823.06;10499281;28;1713;-47
2022/10/22 15:13:04;;;;;;;;;;;;;;;20.24;51.04;95829.66;10500191;28;1162;-47
2022/10/22 15:18:05;;;;;;;;;;;;;;;20.22;50.82;95826.50;10496750;28;1539;-47
2022/10/22 15:23:05;;;;;;;;;;;;;;;20.19;50.98;95827.00;10498773;28;1905;-49
2022/10/22 15:28:06;;;;;;;;;;;;;;;20.17;50.75;95837.78;10496535;28;1610;-50
2022/10/22 15:33:06;;;;;;;;;;;;;;;20.15;50.86;95836.50;10481347;28;1099;-49
2022/10/22 15:38:08;;;;;;;;;;;;;;;20.13;50.78;95836.75;10497805;28;1543;-49
2022/10/22 15:43:08;;;;;;;;;;;;;;;20.14;51.05;95848.88;10499861;28;1975;-48
2022/10/22 15:48:08;;;;;;;;;;;;;;;20.12;51.01;95858.88;10492214;28;1692;-50
2022/10/22 15:53:13;;;;;;;;;;;;;;;20.15;50.79;95863.59;10490142;28;1704;-50
2022/10/22 15:58:13;;;;;;;;;;;;;;;20.12;51.15;95868.59;10493751;28;1454;-47
2022/10/22 16:03:14;;;;;;;;;;;;;;;20.09;51.29;95866.53;10494993;28;1972;-49
2022/10/22 16:08:14;;;;;;;;;;;;;;;20.06;51.17;95875.75;10493038;28;1724;-52
2022/10/22 16:13:15;;;;;;;;;;;;;;;20.04;51.08;95869.94;10496962;28;1058;-48
2022/10/22 16:18:15;;;;;;;;;;;;;;;20.03;51.10;95868.34;10480194;28;1629;-47
2022/10/22 16:23:17;;;;;;;;;;;;;;;20.04;51.20;95872.59;10496077;28;1969;-49
2022/10/22 16:28:18;;;;;;;;;;;;;;;20.01;51.37;95874.97;10489748;28;1666;-49
2022/10/22 16:33:18;;;;;;;;;;;;;;;20.03;51.17;95883.38;10495959;28;1140;-49
2022/10/22 16:38:19;;;;;;;;;;;;;;;19.99;51.03;95883.09;10475599;28;1610;-49
2022/10/22 16:43:19;;;;;;;;;;;;;;;20.04;50.98;95890.22;10495674;28;1894;-51
2022/10/22 16:48:19;;;;;;;;;;;;;;;19.98;50.94;95899.97;10475899;28;1654;-46
2022/10/22 16:53:20;;;;;;;;;;;;;;;20.01;51.07;95896.00;10494903;28;940;-47
2022/10/22 16:58:20;;;;;;;;;;;;;;;19.95;51.38;95903.09;10484719;28;1572;-47
2022/10/22 17:03:20;;;;;;;;;;;;;;;19.95;51.36;95910.22;10495801;28;1913;-50
2022/10/22 17:08:21;;;;;;;;;;;;;;;19.95;51.31;95904.94;10488215;28;1611;-46
2022/10/22 17:13:22;;;;;;;;;;;;;;;20.00;51.18;95918.09;10495151;28;1142;-48
2022/10/22 17:18:22;;;;;;;;;;;;;;;19.98;51.12;95921.00;10494334;28;1606;-47
2022/10/22 17:23:22;;;;;;;;;;;;;;;19.99;51.18;95924.44;10493537;28;1918;-49
2022/10/22 17:28:23;;;;;;;;;;;;;;;19.97;51.27;95929.19;10454353;28;1698;-50
2022/10/22 17:33:23;;;;;;;;;;;;;;;19.94;51.21;95930.50;10493613;28;1126;-50
2022/10/22 17:38:23;;;;;;;;;;;;;;;19.96;51.27;95932.84;10485382;28;1708;-47
2022/10/22 17:43:23;;;;;;;;;;;;;;;20.00;51.13;95939.16;10475419;28;1970;-51
2022/10/22 17:48:24;;;;;;;;;;;;;;;20.00;51.24;95949.69;10488424;28;1642;-48
2022/10/22 17:53:24;;;;;;;;;;;;;;;20.01;51.29;95949.41;10494127;28;1211;-51
2022/10/22 17:58:24;;;;;;;;;;;;;;;19.96;51.13;95951.25;10488249;28;1554;-50
2022/10/22 18:03:26;;;;;;;;;;;;;;;19.99;51.28;95958.66;10492139;28;2021;-50
2022/10/22 18:08:27;;;;;;;;;;;;;;;19.99;51.05;95963.91;10485483;28;1601;-53
2022/10/22 18:13:27;;;;;;;;;;;;;;;19.95;51.21;95961.00;10492594;28;1094;-48
2022/10/22 18:18:27;;;;;;;;;;;;;;;19.99;51.01;95963.91;10490125;28;1650;-47
2022/10/22 18:23:27;;;;;;;;;;;;;;;19.98;51.08;95962.31;10492458;28;1906;-51
2022/10/22 18:28:28;;;;;;;;;;;;;;;19.98;51.34;95964.94;10483329;28;1638;-48
2022/10/22 18:33:28;;;;;;;;;;;;;;;19.96;51.36;95954.69;10498333;28;1106;-51
2022/10/22 18:38:29;;;;;;;;;;;;;;;20.02;51.00;95952.84;10494348;28;1724;-50
2022/10/22 18:43:29;;;;;;;;;;;;;;;19.98;51.32;95960.47;10499073;28;1909;-50
2022/10/22 18:48:29;;;;;;;;;;;;;;;19.92;51.20;95961.53;10498133;28;1702;-49
2022/10/22 18:53:30;;;;;;;;;;;;;;;19.95;51.23;95966.25;10487177;28;1161;-48
2022/10/22 18:58:30;;;;;;;;;;;;;;;19.97;51.21;95960.75;10485916;28;1503;-52
2022/10/22 19:03:30;;;;;;;;;;;;;;;19.97;51.28;95955.50;10498386;28;1969;-49
2022/10/22 19:08:30;;;;;;;;;;;;;;;19.95;51.09;95954.94;10476363;28;1719;-52
2022/10/22 19:13:31;;;;;;;;;;;;;;;19.91;51.40;95949.41;10498548;28;1110;-50
2022/10/22 19:18:31;;;;;;;;;;;;;;;19.93;51.32;95944.69;10492144;28;1615;-52
2022/10/22 19:23:32;;;;;;;;;;;;;;;19.92;51.33;95948.38;10490921;28;1990;-50
2022/10/22 19:28:32;;;;;;;;;;;;;;;19.93;51.17;95942.06;10493127;28;1452;-49
2022/10/22 19:33:33;;;;;;;;;;;;;;;19.92;51.11;95958.09;10496546;28;1265;-51
2022/10/22 19:38:33;;;;;;;;;;;;;;;19.92;51.08;95945.75;10491308;28;1579;-49
2022/10/22 19:43:34;;;;;;;;;;;;;;;19.91;51.22;95944.16;10495545;28;1926;-46
2022/10/22 19:48:34;;;;;;;;;;;;;;;19.93;51.28;95943.88;10490860;28;1038;-49
2022/10/22 19:53:35;;;;;;;;;;;;;;;19.93;51.18;95951.78;10474685;28;1662;-48
2022/10/22 19:58:35;;;;;;;;;;;;;;;19.89;51.09;95951.53;10491604;28;1495;-48
2022/10/22 20:03:36;;;;;;;;;;;;;;;19.93;51.24;95943.88;10495391;28;1918;-49
2022/10/22 20:08:36;;;;;;;;;;;;;;;19.88;50.99;95946.53;10489748;28;1705;-51
2022/10/22 20:13:37;;;;;;;;;;;;;;;19.92;51.10;95953.66;10476836;28;1091;-48
2022/10/22 20:18:37;;;;;;;;;;;;;;;19.92;51.29;95958.09;10472587;28;1650;-47
2022/10/22 20:23:38;;;;;;;;;;;;;;;19.91;51.24;95956.50;10494339;28;1975;-52
2022/10/22 20:28:38;;;;;;;;;;;;;;;19.95;51.05;95960.19;10488052;28;1661;-45
2022/10/22 20:33:38;;;;;;;;;;;;;;;19.88;51.21;95964.94;10494848;28;1169;-50
2022/10/22 20:38:38;;;;;;;;;;;;;;;19.90;51.15;95965.47;10492417;28;1621;-49
2022/10/22 20:43:39;;;;;;;;;;;;;;;19.88;51.36;95976.28;10493745;28;1901;-50
2022/10/22 20:48:39;;;;;;;;;;;;;;;19.88;51.25;95976.28;10487966;28;1709;-49
2022/10/22 20:53:40;;;;;;;;;;;;;;;19.90;51.05;95970.75;10491600;28;1621;-48
2022/10/22 20:58:46;;;;;;;;;;;;;;;19.90;51.23;95970.75;10489614;28;1447;-50
2022/10/22 21:03:47;;;;;;;;;;;;;;;19.91;51.11;95972.31;10492906;28;1902;-50
2022/10/22 21:08:48;;;;;;;;;;;;;;;19.91;51.10;95964.41;10468983;28;2008;-48
2022/10/22 21:13:48;;;;;;;;;;;;;;;19.91;51.25;95964.41;10492786;28;1117;-50
2022/10/22 21:18:49;;;;;;;;;;;;;;;19.90;51.29;95965.47;10485283;28;1610;-48
2022/10/22 21:23:49;;;;;;;;;;;;;;;19.89;51.45;95963.88;10492370;28;1976;-47
2022/10/22 21:28:49;;;;;;;;;;;;;;;19.88;51.13;95963.13;10486892;28;1673;-46
2022/10/22 21:33:50;;;;;;;;;;;;;;;19.86;51.17;95967.84;10474300;28;1114;-47
2022/10/22 21:38:51;;;;;;;;;;;;;;;19.86;51.04;95967.06;10488360;28;1646;-46
2022/10/22 21:43:52;;;;;;;;;;;;;;;19.84;51.19;95966.53;10493164;28;1964;-45
2022/10/22 21:48:56;;;;;;;;;;;;;;;19.88;51.29;95962.31;10492045;28;1614;-48
2022/10/22 21:53:56;;;;;;;;;;;;;;;19.87;51.22;95956.25;10492994;28;1168;-51
2022/10/22 21:58:56;;;;;;;;;;;;;;;19.88;51.21;95951.81;10488120;28;1661;-48
2022/10/22 22:03:57;;;;;;;;;;;;;;;19.87;51.14;95951.00;10492260;28;1961;-48
2022/10/22 22:08:57;;;;;;;;;;;;;;;19.84;51.12;95943.66;10495694;28;1610;-49
2022/10/22 22:13:57;;;;;;;;;;;;;;;19.85;51.28;95950.47;10499659;28;1106;-49
2022/10/22 22:18:58;;;;;;;;;;;;;;;19.86;51.21;95944.19;10475717;28;2997;-49
2022/10/22 22:23:58;;;;;;;;;;;;;;;19.86;51.09;95938.13;10499558;28;1905;-48
2022/10/22 22:28:59;;;;;;;;;;;;;;;19.89;51.18;95937.56;10493623;28;1610;-49
2022/10/22 22:33:59;;;;;;;;;;;;;;;19.88;51.06;95936.81;10480695;28;1162;-47
2022/10/22 22:38:59;;;;;;;;;;;;;;;19.89;51.02;95942.84;10494705;28;1654;-45
2022/10/22 22:44:00;;;;;;;;;;;;;;;19.90;51.16;95949.69;10481494;28;1906;-50
2022/10/22 22:49:00;;;;;;;;;;;;;;;19.86;51.09;95938.13;10479623;28;1648;-47
2022/10/22 22:54:01;;;;;;;;;;;;;;;19.87;51.21;95929.16;10493254;28;1641;-47
2022/10/22 22:59:01;;;;;;;;;;;;;;;19.89;51.16;95913.91;10494161;28;1451;-46
2022/10/22 23:04:01;;;;;;;;;;;;;;;19.91;51.07;95917.06;10498459;28;1979;-49
2022/10/22 23:09:06;;;;;;;;;;;;;;;19.88;51.08;95914.97;10491032;28;1618;-47
2022/10/22 23:14:07;;;;;;;;;;;;;;;19.88;50.94;95917.59;10480644;28;1137;-47
2022/10/22 23:19:07;;;;;;;;;;;;;;;19.88;50.89;95922.84;10475980;28;1680;-48
2022/10/22 23:24:08;;;;;;;;;;;;;;;19.88;50.98;95904.44;10492191;28;1969;-47
2022/10/22 23:29:13;;;;;;;;;;;;;;;19.85;51.21;95899.69;10492142;28;1483;-48
2022/10/22 23:34:17;;;;;;;;;;;;;;;19.89;51.00;95887.59;10496805;28;1177;-49
2022/10/22 23:39:18;;;;;;;;;;;;;;;19.87;50.98;95877.34;10495030;28;1665;-48
2022/10/22 23:44:19;;;;;;;;;;;;;;;19.87;50.99;95873.91;10496340;28;1973;-50
2022/10/22 23:49:20;;;;;;;;;;;;;;;19.88;51.02;95872.88;10488337;28;1563;-47
2022/10/22 23:54:20;;;;;;;;;;;;;;;19.89;50.94;95877.06;10493124;28;1435;-48
2022/10/22 23:59:20;;;;;;;;;;;;;;;19.88;50.97;95872.88;10491580;28;1568;-50
